sensor_id;sensor_type;location;lat;lon;timestamp;P1;durP1;ratioP1;P2;durP2;ratioP2
43823;SDS011;29470;53.550;9.926;2023-08-24T00:01:47;14.27;;;5.97;;
43823;SDS011;29470;53.550;9.926;2023-08-24T00:06:50;9.85;;;4.75;;
43823;SDS011;29470;53.550;9.926;2023-08-24T00:11:54;9.93;;;5.05;;
43823;SDS011;29470;53.550;9.926;2023-08-24T00:16:57;9.82;;;5.20;;
43823;SDS011;29470;53.550;9.926;2023-08-24T00:22:00;10.57;;;5.30;;
43823;SDS011;29470;53.550;9.926;2023-08-24T00:27:04;13.57;;;6.35;;
43823;SDS011;29470;53.550;9.926;2023-08-24T00:32:07;13.23;;;6.45;;
43823;SDS011;29470;53.550;9.926;2023-08-24T00:37:10;9.52;;;5.50;;
43823;SDS011;29470;53.550;9.926;2023-08-24T00:42:15;13.60;;;6.07;;
43823;SDS011;29470;53.550;9.926;2023-08-24T00:47:17;11.70;;;6.32;;
43823;SDS011;29470;53.550;9.926;2023-08-24T00:52:21;10.52;;;5.47;;
43823;SDS011;29470;53.550;9.926;2023-08-24T00:57:26;13.90;;;5.88;;
43823;SDS011;29470;53.550;9.926;2023-08-24T01:02:29;15.23;;;6.47;;
43823;SDS011;29470;53.550;9.926;2023-08-24T01:07:32;12.05;;;6.78;;
43823;SDS011;29470;53.550;9.926;2023-08-24T01:12:42;13.35;;;6.55;;
43823;SDS011;29470;53.550;9.926;2023-08-24T01:17:56;16.38;;;7.20;;
43823;SDS011;29470;53.550;9.926;2023-08-24T01:23:07;12.38;;;6.72;;
43823;SDS011;29470;53.550;9.926;2023-08-24T01:28:22;12.95;;;6.85;;
43823;SDS011;29470;53.550;9.926;2023-08-24T01:33:26;16.30;;;7.50;;
43823;SDS011;29470;53.550;9.926;2023-08-24T01:38:29;12.70;;;6.38;;
43823;SDS011;29470;53.550;9.926;2023-08-24T01:43:34;12.13;;;6.57;;
43823;SDS011;29470;53.550;9.926;2023-08-24T01:48:44;9.02;;;5.72;;
43823;SDS011;29470;53.550;9.926;2023-08-24T01:53:47;18.25;;;6.53;;
43823;SDS011;29470;53.550;9.926;2023-08-24T01:58:52;12.77;;;6.43;;
43823;SDS011;29470;53.550;9.926;2023-08-24T02:03:55;12.27;;;6.00;;
43823;SDS011;29470;53.550;9.926;2023-08-24T02:08:58;10.70;;;6.50;;
43823;SDS011;29470;53.550;9.926;2023-08-24T02:14:04;13.20;;;6.25;;
43823;SDS011;29470;53.550;9.926;2023-08-24T02:19:11;13.27;;;5.97;;
43823;SDS011;29470;53.550;9.926;2023-08-24T02:24:14;11.40;;;5.82;;
43823;SDS011;29470;53.550;9.926;2023-08-24T02:29:18;12.15;;;6.18;;
43823;SDS011;29470;53.550;9.926;2023-08-24T02:34:23;12.52;;;6.20;;
43823;SDS011;29470;53.550;9.926;2023-08-24T02:39:25;10.63;;;5.80;;
43823;SDS011;29470;53.550;9.926;2023-08-24T02:44:30;11.07;;;5.97;;
43823;SDS011;29470;53.550;9.926;2023-08-24T02:49:32;10.10;;;6.03;;
43823;SDS011;29470;53.550;9.926;2023-08-24T02:54:37;12.30;;;6.20;;
43823;SDS011;29470;53.550;9.926;2023-08-24T02:59:41;11.38;;;6.47;;
43823;SDS011;29470;53.550;9.926;2023-08-24T03:04:45;11.13;;;6.35;;
43823;SDS011;29470;53.550;9.926;2023-08-24T03:09:48;14.70;;;6.43;;
43823;SDS011;29470;53.550;9.926;2023-08-24T03:14:53;10.63;;;6.30;;
43823;SDS011;29470;53.550;9.926;2023-08-24T03:19:56;14.30;;;7.15;;
43823;SDS011;29470;53.550;9.926;2023-08-24T03:25:00;10.70;;;6.15;;
43823;SDS011;29470;53.550;9.926;2023-08-24T03:30:04;19.63;;;7.32;;
43823;SDS011;29470;53.550;9.926;2023-08-24T03:35:08;11.82;;;6.82;;
43823;SDS011;29470;53.550;9.926;2023-08-24T03:40:12;13.82;;;6.20;;
43823;SDS011;29470;53.550;9.926;2023-08-24T03:45:16;14.48;;;7.45;;
43823;SDS011;29470;53.550;9.926;2023-08-24T03:50:19;16.70;;;7.90;;
43823;SDS011;29470;53.550;9.926;2023-08-24T03:55:24;14.65;;;8.23;;
43823;SDS011;29470;53.550;9.926;2023-08-24T04:00:29;14.43;;;7.00;;
43823;SDS011;29470;53.550;9.926;2023-08-24T04:05:33;13.50;;;7.35;;
43823;SDS011;29470;53.550;9.926;2023-08-24T04:10:37;12.73;;;7.43;;
43823;SDS011;29470;53.550;9.926;2023-08-24T04:15:41;13.27;;;6.35;;
43823;SDS011;29470;53.550;9.926;2023-08-24T04:20:44;11.85;;;6.88;;
43823;SDS011;29470;53.550;9.926;2023-08-24T04:25:47;12.70;;;8.15;;
43823;SDS011;29470;53.550;9.926;2023-08-24T04:30:51;14.07;;;7.03;;
43823;SDS011;29470;53.550;9.926;2023-08-24T04:35:57;11.60;;;7.03;;
43823;SDS011;29470;53.550;9.926;2023-08-24T04:41:01;12.95;;;6.80;;
43823;SDS011;29470;53.550;9.926;2023-08-24T04:46:10;14.93;;;7.40;;
43823;SDS011;29470;53.550;9.926;2023-08-24T04:51:12;12.27;;;6.93;;
43823;SDS011;29470;53.550;9.926;2023-08-24T04:56:15;12.85;;;7.63;;
43823;SDS011;29470;53.550;9.926;2023-08-24T05:01:21;11.60;;;8.13;;
43823;SDS011;29470;53.550;9.926;2023-08-24T05:06:26;12.95;;;6.97;;
43823;SDS011;29470;53.550;9.926;2023-08-24T05:11:29;12.93;;;7.68;;
43823;SDS011;29470;53.550;9.926;2023-08-24T05:16:33;12.32;;;6.68;;
43823;SDS011;29470;53.550;9.926;2023-08-24T05:21:36;11.85;;;6.88;;
43823;SDS011;29470;53.550;9.926;2023-08-24T05:26:38;12.75;;;6.35;;
43823;SDS011;29470;53.550;9.926;2023-08-24T05:31:43;11.45;;;5.22;;
43823;SDS011;29470;53.550;9.926;2023-08-24T05:36:45;11.23;;;5.28;;
43823;SDS011;29470;53.550;9.926;2023-08-24T05:41:50;10.27;;;5.68;;
43823;SDS011;29470;53.550;9.926;2023-08-24T05:46:54;8.38;;;4.40;;
43823;SDS011;29470;53.550;9.926;2023-08-24T05:51:57;8.68;;;3.75;;
43823;SDS011;29470;53.550;9.926;2023-08-24T05:57:00;7.68;;;3.55;;
43823;SDS011;29470;53.550;9.926;2023-08-24T06:02:04;7.25;;;3.33;;
43823;SDS011;29470;53.550;9.926;2023-08-24T06:07:07;6.45;;;2.60;;
43823;SDS011;29470;53.550;9.926;2023-08-24T06:12:10;7.97;;;3.20;;
43823;SDS011;29470;53.550;9.926;2023-08-24T06:17:14;4.32;;;2.70;;
43823;SDS011;29470;53.550;9.926;2023-08-24T06:22:17;6.40;;;3.40;;
43823;SDS011;29470;53.550;9.926;2023-08-24T06:27:20;5.07;;;2.72;;
43823;SDS011;29470;53.550;9.926;2023-08-24T06:32:25;4.35;;;3.00;;
43823;SDS011;29470;53.550;9.926;2023-08-24T06:37:27;5.45;;;2.97;;
43823;SDS011;29470;53.550;9.926;2023-08-24T06:42:30;6.53;;;3.13;;
43823;SDS011;29470;53.550;9.926;2023-08-24T06:47:35;7.43;;;3.83;;
43823;SDS011;29470;53.550;9.926;2023-08-24T06:52:38;6.75;;;2.85;;
43823;SDS011;29470;53.550;9.926;2023-08-24T06:57:40;7.43;;;3.20;;
43823;SDS011;29470;53.550;9.926;2023-08-24T07:02:45;6.65;;;2.90;;
43823;SDS011;29470;53.550;9.926;2023-08-24T07:07:49;5.72;;;2.80;;
43823;SDS011;29470;53.550;9.926;2023-08-24T07:12:52;7.65;;;2.63;;
43823;SDS011;29470;53.550;9.926;2023-08-24T07:17:57;7.38;;;3.03;;
43823;SDS011;29470;53.550;9.926;2023-08-24T07:22:59;8.57;;;3.40;;
43823;SDS011;29470;53.550;9.926;2023-08-24T07:28:03;5.38;;;3.08;;
43823;SDS011;29470;53.550;9.926;2023-08-24T07:33:07;6.25;;;2.75;;
43823;SDS011;29470;53.550;9.926;2023-08-24T07:38:11;7.47;;;2.28;;
43823;SDS011;29470;53.550;9.926;2023-08-24T07:43:14;5.55;;;2.00;;
43823;SDS011;29470;53.550;9.926;2023-08-24T07:48:18;6.53;;;2.63;;
43823;SDS011;29470;53.550;9.926;2023-08-24T07:53:21;5.50;;;2.88;;
43823;SDS011;29470;53.550;9.926;2023-08-24T07:58:24;5.03;;;2.80;;
43823;SDS011;29470;53.550;9.926;2023-08-24T08:03:29;4.80;;;2.50;;
43823;SDS011;29470;53.550;9.926;2023-08-24T08:08:32;5.53;;;2.60;;
43823;SDS011;29470;53.550;9.926;2023-08-24T08:13:35;5.40;;;2.80;;
43823;SDS011;29470;53.550;9.926;2023-08-24T08:18:39;8.48;;;3.00;;
43823;SDS011;29470;53.550;9.926;2023-08-24T08:23:42;6.15;;;2.95;;
43823;SDS011;29470;53.550;9.926;2023-08-24T08:28:46;6.45;;;3.40;;
43823;SDS011;29470;53.550;9.926;2023-08-24T08:33:50;8.18;;;3.85;;
43823;SDS011;29470;53.550;9.926;2023-08-24T08:38:54;6.90;;;3.58;;
43823;SDS011;29470;53.550;9.926;2023-08-24T08:43:57;7.15;;;3.10;;
43823;SDS011;29470;53.550;9.926;2023-08-24T08:49:01;8.30;;;4.05;;
43823;SDS011;29470;53.550;9.926;2023-08-24T08:54:05;9.95;;;3.92;;
43823;SDS011;29470;53.550;9.926;2023-08-24T08:59:08;6.00;;;2.65;;
43823;SDS011;29470;53.550;9.926;2023-08-24T09:04:12;7.13;;;2.80;;
43823;SDS011;29470;53.550;9.926;2023-08-24T09:09:16;5.95;;;2.78;;
43823;SDS011;29470;53.550;9.926;2023-08-24T09:14:19;5.18;;;2.50;;
43823;SDS011;29470;53.550;9.926;2023-08-24T09:47:11;5.38;;;2.35;;
43823;SDS011;29470;53.550;9.926;2023-08-24T09:52:13;7.10;;;2.60;;
43823;SDS011;29470;53.550;9.926;2023-08-24T09:57:15;7.53;;;3.20;;
43823;SDS011;29470;53.550;9.926;2023-08-24T10:10:53;5.07;;;3.17;;
43823;SDS011;29470;53.550;9.926;2023-08-24T10:15:56;7.45;;;3.33;;
43823;SDS011;29470;53.550;9.926;2023-08-24T10:20:58;8.57;;;2.95;;
43823;SDS011;29470;53.550;9.926;2023-08-24T10:35:05;6.72;;;3.10;;
43823;SDS011;29470;53.550;9.926;2023-08-24T10:40:07;8.00;;;3.30;;
43823;SDS011;29470;53.550;9.926;2023-08-24T10:45:12;6.85;;;3.10;;
43823;SDS011;29470;53.550;9.926;2023-08-24T10:50:18;6.15;;;3.55;;
43823;SDS011;29470;53.550;9.926;2023-08-24T10:55:21;5.57;;;2.97;;
43823;SDS011;29470;53.550;9.926;2023-08-24T11:00:26;6.68;;;3.22;;
43823;SDS011;29470;53.550;9.926;2023-08-24T11:05:31;7.38;;;3.75;;
43823;SDS011;29470;53.550;9.926;2023-08-24T11:10:44;6.90;;;3.50;;
43823;SDS011;29470;53.550;9.926;2023-08-24T11:15:50;7.18;;;3.85;;
43823;SDS011;29470;53.550;9.926;2023-08-24T11:20:59;8.23;;;3.70;;
43823;SDS011;29470;53.550;9.926;2023-08-24T11:26:04;8.45;;;3.47;;
43823;SDS011;29470;53.550;9.926;2023-08-24T11:31:08;7.75;;;2.97;;
43823;SDS011;29470;53.550;9.926;2023-08-24T11:36:13;5.82;;;3.50;;
43823;SDS011;29470;53.550;9.926;2023-08-24T11:41:17;5.38;;;3.10;;
43823;SDS011;29470;53.550;9.926;2023-08-24T11:46:21;6.90;;;3.30;;
43823;SDS011;29470;53.550;9.926;2023-08-24T11:51:25;5.75;;;3.30;;
43823;SDS011;29470;53.550;9.926;2023-08-24T11:56:43;7.03;;;3.58;;
43823;SDS011;29470;53.550;9.926;2023-08-24T12:01:47;6.90;;;3.30;;
43823;SDS011;29470;53.550;9.926;2023-08-24T12:06:52;6.93;;;3.10;;
43823;SDS011;29470;53.550;9.926;2023-08-24T12:11:55;6.55;;;3.35;;
43823;SDS011;29470;53.550;9.926;2023-08-24T12:16:59;8.88;;;3.83;;
43823;SDS011;29470;53.550;9.926;2023-08-24T12:22:13;6.20;;;3.65;;
43823;SDS011;29470;53.550;9.926;2023-08-24T12:27:19;9.23;;;4.20;;
43823;SDS011;29470;53.550;9.926;2023-08-24T12:32:22;5.80;;;3.65;;
43823;SDS011;29470;53.550;9.926;2023-08-24T12:37:29;6.63;;;3.38;;
43823;SDS011;29470;53.550;9.926;2023-08-24T12:42:32;7.78;;;3.20;;
43823;SDS011;29470;53.550;9.926;2023-08-24T12:47:37;7.55;;;4.15;;
43823;SDS011;29470;53.550;9.926;2023-08-24T12:52:42;9.18;;;3.50;;
43823;SDS011;29470;53.550;9.926;2023-08-24T12:57:44;5.10;;;2.90;;
43823;SDS011;29470;53.550;9.926;2023-08-24T13:02:48;9.85;;;2.90;;
43823;SDS011;29470;53.550;9.926;2023-08-24T13:07:52;6.20;;;2.75;;
43823;SDS011;29470;53.550;9.926;2023-08-24T13:12:56;5.25;;;3.05;;
43823;SDS011;29470;53.550;9.926;2023-08-24T13:17:59;7.75;;;3.60;;
43823;SDS011;29470;53.550;9.926;2023-08-24T13:23:03;5.35;;;2.90;;
43823;SDS011;29470;53.550;9.926;2023-08-24T13:28:07;7.43;;;3.10;;
43823;SDS011;29470;53.550;9.926;2023-08-24T13:33:09;5.25;;;2.70;;
43823;SDS011;29470;53.550;9.926;2023-08-24T13:38:18;4.93;;;2.80;;
43823;SDS011;29470;53.550;9.926;2023-08-24T13:43:21;5.53;;;3.03;;
43823;SDS011;29470;53.550;9.926;2023-08-24T13:48:24;3.97;;;2.20;;
43823;SDS011;29470;53.550;9.926;2023-08-24T13:53:29;3.78;;;2.15;;
43823;SDS011;29470;53.550;9.926;2023-08-24T13:58:32;7.68;;;2.80;;
43823;SDS011;29470;53.550;9.926;2023-08-24T14:03:35;4.90;;;2.25;;
43823;SDS011;29470;53.550;9.926;2023-08-24T14:08:40;5.75;;;2.53;;
43823;SDS011;29470;53.550;9.926;2023-08-24T14:13:43;4.93;;;2.55;;
43823;SDS011;29470;53.550;9.926;2023-08-24T14:18:46;5.65;;;3.10;;
43823;SDS011;29470;53.550;9.926;2023-08-24T14:23:50;6.95;;;3.60;;
43823;SDS011;29470;53.550;9.926;2023-08-24T14:28:54;7.80;;;2.70;;
43823;SDS011;29470;53.550;9.926;2023-08-24T14:33:58;5.28;;;2.75;;
43823;SDS011;29470;53.550;9.926;2023-08-24T14:39:02;5.22;;;2.90;;
43823;SDS011;29470;53.550;9.926;2023-08-24T14:44:05;4.65;;;2.60;;
43823;SDS011;29470;53.550;9.926;2023-08-24T14:49:09;6.70;;;2.97;;
43823;SDS011;29470;53.550;9.926;2023-08-24T14:54:13;5.35;;;2.55;;
43823;SDS011;29470;53.550;9.926;2023-08-24T14:59:17;3.70;;;2.20;;
43823;SDS011;29470;53.550;9.926;2023-08-24T15:04:20;5.15;;;2.75;;
43823;SDS011;29470;53.550;9.926;2023-08-24T15:09:25;4.35;;;2.60;;
43823;SDS011;29470;53.550;9.926;2023-08-24T15:14:29;5.85;;;4.50;;
43823;SDS011;29470;53.550;9.926;2023-08-24T15:19:32;5.05;;;2.92;;
43823;SDS011;29470;53.550;9.926;2023-08-24T15:24:37;7.35;;;3.42;;
43823;SDS011;29470;53.550;9.926;2023-08-24T15:29:40;3.63;;;2.45;;
43823;SDS011;29470;53.550;9.926;2023-08-24T15:34:43;3.45;;;2.40;;
43823;SDS011;29470;53.550;9.926;2023-08-24T15:39:47;6.90;;;3.03;;
43823;SDS011;29470;53.550;9.926;2023-08-24T15:44:50;5.63;;;2.70;;
43823;SDS011;29470;53.550;9.926;2023-08-24T15:49:53;6.07;;;2.53;;
43823;SDS011;29470;53.550;9.926;2023-08-24T15:54:57;4.55;;;2.67;;
43823;SDS011;29470;53.550;9.926;2023-08-24T16:00:00;4.38;;;2.55;;
43823;SDS011;29470;53.550;9.926;2023-08-24T16:05:12;6.50;;;3.00;;
43823;SDS011;29470;53.550;9.926;2023-08-24T16:10:18;3.78;;;2.88;;
43823;SDS011;29470;53.550;9.926;2023-08-24T16:15:21;5.53;;;2.60;;
43823;SDS011;29470;53.550;9.926;2023-08-24T16:20:26;11.73;;;4.70;;
43823;SDS011;29470;53.550;9.926;2023-08-24T16:25:30;16.27;;;8.05;;
43823;SDS011;29470;53.550;9.926;2023-08-24T16:30:34;4.20;;;3.00;;
43823;SDS011;29470;53.550;9.926;2023-08-24T16:35:37;6.47;;;3.03;;
43823;SDS011;29470;53.550;9.926;2023-08-24T16:40:41;5.40;;;3.20;;
43823;SDS011;29470;53.550;9.926;2023-08-24T16:45:44;5.30;;;2.97;;
43823;SDS011;29470;53.550;9.926;2023-08-24T16:50:49;7.40;;;3.53;;
43823;SDS011;29470;53.550;9.926;2023-08-24T16:55:54;5.10;;;3.13;;
43823;SDS011;29470;53.550;9.926;2023-08-24T17:01:03;5.72;;;3.13;;
43823;SDS011;29470;53.550;9.926;2023-08-24T17:06:06;6.75;;;3.47;;
43823;SDS011;29470;53.550;9.926;2023-08-24T17:11:10;6.28;;;4.45;;
43823;SDS011;29470;53.550;9.926;2023-08-24T17:16:13;4.65;;;2.92;;
43823;SDS011;29470;53.550;9.926;2023-08-24T17:21:16;4.53;;;2.58;;
43823;SDS011;29470;53.550;9.926;2023-08-24T17:26:23;8.32;;;2.90;;
43823;SDS011;29470;53.550;9.926;2023-08-24T17:31:26;6.22;;;3.20;;
43823;SDS011;29470;53.550;9.926;2023-08-24T17:36:28;4.78;;;3.20;;
43823;SDS011;29470;53.550;9.926;2023-08-24T17:41:33;4.90;;;3.53;;
43823;SDS011;29470;53.550;9.926;2023-08-24T17:46:36;5.65;;;3.20;;
43823;SDS011;29470;53.550;9.926;2023-08-24T17:51:38;10.05;;;5.53;;
43823;SDS011;29470;53.550;9.926;2023-08-24T17:56:43;9.93;;;5.20;;
43823;SDS011;29470;53.550;9.926;2023-08-24T18:01:46;7.82;;;4.20;;
43823;SDS011;29470;53.550;9.926;2023-08-24T18:06:49;10.05;;;5.25;;
43823;SDS011;29470;53.550;9.926;2023-08-24T18:11:53;13.55;;;7.32;;
43823;SDS011;29470;53.550;9.926;2023-08-24T18:16:56;9.82;;;5.20;;
43823;SDS011;29470;53.550;9.926;2023-08-24T18:21:58;7.22;;;4.35;;
43823;SDS011;29470;53.550;9.926;2023-08-24T18:27:03;9.23;;;4.30;;
43823;SDS011;29470;53.550;9.926;2023-08-24T18:32:06;10.57;;;3.95;;
43823;SDS011;29470;53.550;9.926;2023-08-24T18:37:09;6.60;;;3.55;;
43823;SDS011;29470;53.550;9.926;2023-08-24T18:42:13;5.07;;;3.65;;
43823;SDS011;29470;53.550;9.926;2023-08-24T18:47:16;9.45;;;4.63;;
43823;SDS011;29470;53.550;9.926;2023-08-24T18:52:19;5.45;;;3.60;;
43823;SDS011;29470;53.550;9.926;2023-08-24T18:57:23;6.65;;;3.80;;
43823;SDS011;29470;53.550;9.926;2023-08-24T19:02:26;7.38;;;3.67;;
43823;SDS011;29470;53.550;9.926;2023-08-24T19:07:29;7.70;;;3.67;;
43823;SDS011;29470;53.550;9.926;2023-08-24T19:12:33;7.18;;;3.95;;
43823;SDS011;29470;53.550;9.926;2023-08-24T19:17:36;4.28;;;3.20;;
43823;SDS011;29470;53.550;9.926;2023-08-24T19:22:39;5.78;;;3.70;;
43823;SDS011;29470;53.550;9.926;2023-08-24T19:27:43;4.78;;;3.20;;
43823;SDS011;29470;53.550;9.926;2023-08-24T19:32:46;8.20;;;3.72;;
43823;SDS011;29470;53.550;9.926;2023-08-24T19:37:49;6.13;;;3.63;;
43823;SDS011;29470;53.550;9.926;2023-08-24T19:42:54;6.97;;;4.00;;
43823;SDS011;29470;53.550;9.926;2023-08-24T19:47:57;7.43;;;4.32;;
43823;SDS011;29470;53.550;9.926;2023-08-24T19:53:00;11.23;;;5.72;;
43823;SDS011;29470;53.550;9.926;2023-08-24T19:58:04;7.18;;;3.92;;
43823;SDS011;29470;53.550;9.926;2023-08-24T20:03:10;5.85;;;5.13;;
43823;SDS011;29470;53.550;9.926;2023-08-24T20:08:13;6.55;;;4.20;;
43823;SDS011;29470;53.550;9.926;2023-08-24T20:13:17;6.80;;;4.50;;
43823;SDS011;29470;53.550;9.926;2023-08-24T20:18:21;7.13;;;4.97;;
43823;SDS011;29470;53.550;9.926;2023-08-24T20:23:27;6.13;;;4.65;;
43823;SDS011;29470;53.550;9.926;2023-08-24T20:28:33;6.05;;;3.70;;
43823;SDS011;29470;53.550;9.926;2023-08-24T20:33:38;5.50;;;4.03;;
43823;SDS011;29470;53.550;9.926;2023-08-24T20:38:40;5.47;;;3.55;;
43823;SDS011;29470;53.550;9.926;2023-08-24T20:43:45;9.68;;;4.68;;
43823;SDS011;29470;53.550;9.926;2023-08-24T20:48:48;5.93;;;3.53;;
43823;SDS011;29470;53.550;9.926;2023-08-24T20:53:51;8.38;;;3.90;;
43823;SDS011;29470;53.550;9.926;2023-08-24T20:58:57;10.02;;;6.20;;
43823;SDS011;29470;53.550;9.926;2023-08-24T21:03:59;8.63;;;4.22;;
43823;SDS011;29470;53.550;9.926;2023-08-24T21:09:02;10.50;;;4.60;;
43823;SDS011;29470;53.550;9.926;2023-08-24T21:14:07;8.13;;;4.15;;
43823;SDS011;29470;53.550;9.926;2023-08-24T21:19:10;6.53;;;4.40;;
43823;SDS011;29470;53.550;9.926;2023-08-24T21:24:12;6.72;;;4.82;;
43823;SDS011;29470;53.550;9.926;2023-08-24T21:29:17;8.02;;;4.97;;
43823;SDS011;29470;53.550;9.926;2023-08-24T21:34:20;7.82;;;5.20;;
43823;SDS011;29470;53.550;9.926;2023-08-24T21:39:23;7.07;;;5.47;;
43823;SDS011;29470;53.550;9.926;2023-08-24T21:44:27;8.15;;;5.00;;
43823;SDS011;29470;53.550;9.926;2023-08-24T21:49:30;7.30;;;5.32;;
43823;SDS011;29470;53.550;9.926;2023-08-24T21:54:33;7.50;;;5.28;;
43823;SDS011;29470;53.550;9.926;2023-08-24T21:59:37;7.88;;;5.32;;
43823;SDS011;29470;53.550;9.926;2023-08-24T22:04:40;7.10;;;4.90;;
43823;SDS011;29470;53.550;9.926;2023-08-24T22:09:43;5.50;;;4.50;;
43823;SDS011;29470;53.550;9.926;2023-08-24T22:14:47;7.45;;;5.22;;
43823;SDS011;29470;53.550;9.926;2023-08-24T22:19:50;7.30;;;5.57;;
43823;SDS011;29470;53.550;9.926;2023-08-24T22:24:52;9.35;;;5.38;;
43823;SDS011;29470;53.550;9.926;2023-08-24T22:29:57;10.32;;;6.40;;
43823;SDS011;29470;53.550;9.926;2023-08-24T22:34:59;6.80;;;6.10;;
43823;SDS011;29470;53.550;9.926;2023-08-24T22:40:02;9.45;;;6.20;;
43823;SDS011;29470;53.550;9.926;2023-08-24T22:45:12;7.43;;;5.72;;
43823;SDS011;29470;53.550;9.926;2023-08-24T22:50:16;7.45;;;5.85;;
43823;SDS011;29470;53.550;9.926;2023-08-24T22:55:19;6.88;;;6.00;;
43823;SDS011;29470;53.550;9.926;2023-08-24T23:00:23;8.68;;;6.10;;
43823;SDS011;29470;53.550;9.926;2023-08-24T23:05:26;7.90;;;6.45;;
43823;SDS011;29470;53.550;9.926;2023-08-24T23:10:28;7.78;;;6.05;;
43823;SDS011;29470;53.550;9.926;2023-08-24T23:15:33;9.00;;;7.07;;
43823;SDS011;29470;53.550;9.926;2023-08-24T23:20:36;9.30;;;6.78;;
43823;SDS011;29470;53.550;9.926;2023-08-24T23:25:39;8.15;;;6.05;;
43823;SDS011;29470;53.550;9.926;2023-08-24T23:30:46;8.73;;;6.22;;
43823;SDS011;29470;53.550;9.926;2023-08-24T23:35:48;9.70;;;7.18;;
43823;SDS011;29470;53.550;9.926;2023-08-24T23:40:56;9.70;;;6.90;;
43823;SDS011;29470;53.550;9.926;2023-08-24T23:46:04;8.98;;;6.35;;
43823;SDS011;29470;53.550;9.926;2023-08-24T23:51:06;9.15;;;7.00;;
43823;SDS011;29470;53.550;9.926;2023-08-24T23:56:09;10.55;;;7.80;;
